createdAt,value
2019-05-18T00:02:08.266Z,100501.52
2019-05-18T00:04:41.368Z,100503.27
2019-05-18T00:07:11.446Z,100500.91
2019-05-18T00:09:41.555Z,100501.31
2019-05-18T00:12:11.603Z,100498.67
2019-05-18T00:14:41.731Z,100493.25
2019-05-18T00:17:24.510Z,100496.45
2019-05-18T00:19:43.623Z,100497.62
2019-05-18T00:22:13.704Z,100497.16
2019-05-18T00:24:43.780Z,100497.30
2019-05-18T00:27:15.863Z,100496.88
2019-05-18T00:29:45.657Z,100493.06
2019-05-18T00:32:15.898Z,100490.55
2019-05-18T00:34:45.974Z,100493.48
2019-05-18T00:37:16.077Z,100491.66
2019-05-18T00:39:46.205Z,100494.66
2019-05-18T00:42:16.281Z,100505.54
2019-05-18T00:44:46.376Z,100488.20
2019-05-18T00:47:16.487Z,100488.26
2019-05-18T00:49:46.567Z,100488.52
2019-05-18T00:52:16.656Z,100488.05
2019-05-18T00:54:46.724Z,100482.69
2019-05-18T00:57:16.812Z,100486.30
2019-05-18T00:59:46.934Z,100480.55
2019-05-18T01:02:17.053Z,100481.78
2019-05-18T01:04:47.129Z,100482.75
2019-05-18T01:07:17.207Z,100482.13
2019-05-18T01:09:47.289Z,100485.77
2019-05-18T01:12:17.369Z,100482.98
2019-05-18T01:15:46.567Z,100483.03
2019-05-18T01:18:16.750Z,100483.74
2019-05-18T01:20:47.208Z,100482.75
2019-05-18T01:23:17.271Z,100482.22
2019-05-18T01:25:47.388Z,100485.27
2019-05-18T01:28:17.458Z,100474.20
2019-05-18T01:30:47.652Z,100479.48
2019-05-18T01:33:17.799Z,100477.81
2019-05-18T01:35:47.926Z,100476.55
2019-05-18T01:38:18.005Z,100470.75
2019-05-18T01:40:48.136Z,100470.66
2019-05-18T01:43:18.199Z,100469.25
2019-05-18T01:45:48.291Z,100468.52
2019-05-18T01:48:18.420Z,100463.64
2019-05-18T01:50:48.500Z,100459.21
2019-05-18T01:53:18.593Z,100462.23
2019-05-18T01:55:48.710Z,100464.05
2019-05-18T01:58:18.847Z,100454.91
2019-05-18T02:00:48.937Z,100458.77
2019-05-18T02:03:19.116Z,100461.06
2019-05-18T02:05:49.263Z,100461.00
2019-05-18T02:08:19.376Z,100457.05
2019-05-18T02:10:49.485Z,100457.89
2019-05-18T02:13:19.648Z,100459.62
2019-05-18T02:15:49.726Z,100459.39
2019-05-18T02:18:28.642Z,100456.37
2019-05-18T02:20:51.637Z,100455.17
2019-05-18T02:23:21.746Z,100453.59
2019-05-18T02:25:51.820Z,100465.55
2019-05-18T02:28:21.928Z,100456.02
2019-05-18T02:30:52.151Z,100460.95
2019-05-18T02:33:22.247Z,100458.09
2019-05-18T02:35:52.330Z,100454.14
2019-05-18T02:38:22.471Z,100455.54
2019-05-18T02:40:52.571Z,100457.69
2019-05-18T02:43:22.655Z,100451.99
2019-05-18T02:45:52.726Z,100455.05
2019-05-18T02:48:22.813Z,100450.79
2019-05-18T02:50:52.927Z,100459.20
2019-05-18T02:53:22.991Z,100457.55
2019-05-18T02:55:53.120Z,100457.67
2019-05-18T02:58:23.171Z,100453.80
2019-05-18T03:00:53.277Z,100454.77
2019-05-18T03:03:23.362Z,100453.58
2019-05-18T03:05:53.434Z,100448.74
2019-05-18T03:08:23.512Z,100449.29
2019-05-18T03:10:53.771Z,100452.95
2019-05-18T03:13:23.830Z,100451.70
2019-05-18T03:15:53.987Z,100442.18
2019-05-18T03:18:24.061Z,100440.86
2019-05-18T03:20:54.185Z,100445.31
2019-05-18T03:23:24.284Z,100450.17
2019-05-18T03:25:54.371Z,100447.04
2019-05-18T03:28:24.443Z,100446.98
2019-05-18T03:30:54.517Z,100443.94
2019-05-18T03:33:29.141Z,100440.86
2019-05-18T03:35:56.385Z,100446.84
2019-05-18T03:38:26.442Z,100442.89
2019-05-18T03:40:56.566Z,100436.22
2019-05-18T03:43:26.660Z,100438.66
2019-05-18T03:45:56.755Z,100440.80
2019-05-18T03:48:26.823Z,100438.58
2019-05-18T03:50:56.943Z,100434.20
2019-05-18T03:53:27.002Z,100447.20
2019-05-18T03:55:57.219Z,100436.65
2019-05-18T03:58:27.238Z,100443.87
2019-05-18T04:00:57.318Z,100443.25
2019-05-18T04:03:27.379Z,100438.09
2019-05-18T04:05:57.478Z,100445.26
2019-05-18T04:08:27.629Z,100448.10
2019-05-18T04:10:57.740Z,100446.69
2019-05-18T04:13:27.833Z,100439.97
2019-05-18T04:15:57.908Z,100442.84
2019-05-18T04:18:27.983Z,100434.80
2019-05-18T04:20:58.374Z,100436.44
2019-05-18T04:23:28.533Z,100438.45
2019-05-18T04:25:58.626Z,100439.55
2019-05-18T04:28:28.727Z,100436.76
2019-05-18T04:30:58.778Z,100436.59
2019-05-18T04:33:28.904Z,100439.40
2019-05-18T04:35:59.004Z,100435.15
2019-05-18T04:38:29.104Z,100433.09
2019-05-18T04:41:02.559Z,100434.82
2019-05-18T04:43:32.678Z,100439.00
2019-05-18T04:46:02.770Z,100439.28
2019-05-18T04:48:32.886Z,100435.21
2019-05-18T04:51:02.981Z,100437.37
2019-05-18T04:53:33.071Z,100447.52
2019-05-18T04:56:03.187Z,100450.75
2019-05-18T04:58:33.339Z,100455.80
2019-05-18T05:01:03.422Z,100456.89
2019-05-18T05:03:33.667Z,100456.66
2019-05-18T05:06:03.776Z,100452.34
2019-05-18T05:08:33.887Z,100448.61
2019-05-18T05:11:04.009Z,100447.24
2019-05-18T05:13:34.112Z,100453.87
2019-05-18T05:16:04.594Z,100449.22
2019-05-18T05:18:34.773Z,100452.42
2019-05-18T05:21:04.898Z,100453.24
2019-05-18T05:23:34.967Z,100451.63
2019-05-18T05:26:05.095Z,100450.12
2019-05-18T05:28:35.188Z,100445.92
2019-05-18T05:31:05.304Z,100446.55
2019-05-18T05:33:38.453Z,100440.59
2019-05-18T05:36:08.567Z,100434.20
2019-05-18T05:38:38.693Z,100441.50
2019-05-18T05:41:08.854Z,100438.64
2019-05-18T05:43:38.915Z,100444.52
2019-05-18T05:46:08.981Z,100446.87
2019-05-18T05:48:39.069Z,100451.16
2019-05-18T05:51:09.181Z,100445.66
2019-05-18T05:53:39.320Z,100454.50
2019-05-18T05:56:09.418Z,100451.41
2019-05-18T05:58:39.515Z,100447.09
2019-05-18T06:01:09.589Z,100447.66
2019-05-18T06:03:39.695Z,100446.86
2019-05-18T06:06:09.879Z,100444.28
2019-05-18T06:08:40.001Z,100443.30
2019-05-18T06:11:11.992Z,100449.26
2019-05-18T06:13:42.079Z,100446.70
2019-05-18T06:16:13.928Z,100453.22
2019-05-18T06:18:44.056Z,100444.53
2019-05-18T06:21:14.248Z,100447.19
2019-05-18T06:23:44.340Z,100452.78
2019-05-18T06:26:14.416Z,100446.17
2019-05-18T06:28:44.706Z,100455.43
2019-05-18T06:31:16.600Z,100456.03
2019-05-18T06:33:46.748Z,100453.16
2019-05-18T06:36:16.864Z,100449.06
2019-05-18T06:38:46.950Z,100458.91
2019-05-18T06:41:17.044Z,100462.08
2019-05-18T06:43:47.167Z,100468.88
2019-05-18T06:46:17.303Z,100462.37
2019-05-18T06:48:47.422Z,100468.77
2019-05-18T06:51:19.284Z,100468.00
2019-05-18T06:53:49.452Z,100464.34
2019-05-18T06:56:19.750Z,100468.94
2019-05-18T06:58:51.721Z,100465.91
2019-05-18T07:01:21.851Z,100466.47
2019-05-18T07:03:51.953Z,100468.34
2019-05-18T07:06:22.019Z,100471.17
2019-05-18T07:08:52.131Z,100465.33
2019-05-18T07:11:22.208Z,100467.61
2019-05-18T07:13:52.330Z,100471.20
2019-05-18T07:16:22.458Z,100471.71
2019-05-18T07:18:52.541Z,100469.65
2019-05-18T07:21:22.835Z,100472.92
2019-05-18T07:23:52.935Z,100472.35
2019-05-18T07:26:23.027Z,100471.67
2019-05-18T07:28:53.137Z,100474.41
2019-05-18T07:31:23.395Z,100470.52
2019-05-18T07:33:53.547Z,100465.09
2019-05-18T07:36:23.675Z,100464.06
2019-05-18T07:38:53.776Z,100460.63
2019-05-18T07:41:23.881Z,100463.58
2019-05-18T07:43:54.047Z,100466.16
2019-05-18T07:46:24.157Z,100460.41
2019-05-18T07:48:54.274Z,100449.81
2019-05-18T07:51:36.319Z,100458.81
2019-05-18T07:53:56.213Z,100460.23
2019-05-18T07:56:26.322Z,100454.91
2019-05-18T07:58:56.420Z,100458.11
2019-05-18T08:01:26.496Z,100460.45
2019-05-18T08:03:56.591Z,100457.52
2019-05-18T08:06:26.680Z,100454.37
2019-05-18T08:08:56.820Z,100455.16
2019-05-18T08:11:27.263Z,100452.00
2019-05-18T08:13:57.538Z,100452.75
2019-05-18T08:16:28.731Z,100457.03
2019-05-18T08:18:58.819Z,100454.69
2019-05-18T08:21:28.917Z,100452.17
2019-05-18T08:23:59.098Z,100455.19
2019-05-18T08:26:29.169Z,100460.20
2019-05-18T08:28:59.301Z,100462.00
2019-05-18T08:31:29.431Z,100454.27
2019-05-18T08:33:59.570Z,100458.44
2019-05-18T08:36:29.651Z,100458.66
2019-05-18T08:39:01.490Z,100460.42
2019-05-18T08:41:31.604Z,100445.99
2019-05-18T08:44:01.748Z,100451.07
2019-05-18T08:46:31.853Z,100450.64
2019-05-18T08:49:01.945Z,100450.00
2019-05-18T08:51:32.035Z,100453.41
2019-05-18T08:54:02.184Z,100452.11
2019-05-18T08:56:32.282Z,100455.66
2019-05-18T08:59:02.453Z,100454.39
2019-05-18T09:01:32.571Z,100453.56
2019-05-18T09:04:02.668Z,100448.31
2019-05-18T09:06:32.748Z,100445.16
2019-05-18T09:09:04.724Z,100446.39
2019-05-18T09:11:34.873Z,100445.84
2019-05-18T09:14:05.001Z,100449.77
2019-05-18T09:16:35.109Z,100443.73
2019-05-18T09:19:05.207Z,100445.47
2019-05-18T09:21:35.273Z,100439.53
2019-05-18T09:24:05.510Z,100438.11
2019-05-18T09:26:35.618Z,100440.73
2019-05-18T09:29:05.895Z,100444.07
2019-05-18T09:31:35.960Z,100446.06
2019-05-18T09:34:06.063Z,100444.17
2019-05-18T09:36:36.163Z,100435.61
2019-05-18T09:39:07.652Z,100439.19
2019-05-18T09:41:37.799Z,100436.97
2019-05-18T09:44:07.910Z,100431.84
2019-05-18T09:46:38.005Z,100432.94
2019-05-18T09:49:08.391Z,100428.08
2019-05-18T09:51:38.493Z,100425.47
2019-05-18T09:54:08.627Z,100422.74
2019-05-18T09:56:38.730Z,100417.25
2019-05-18T09:59:08.934Z,100416.68
2019-05-18T10:01:39.020Z,100415.41
2019-05-18T10:04:09.087Z,100413.42
2019-05-18T10:06:39.207Z,100413.44
2019-05-18T10:09:09.867Z,100410.93
2019-05-18T10:11:39.958Z,100411.27
2019-05-18T10:14:10.060Z,100414.72
2019-05-18T10:16:40.203Z,100405.30
2019-05-18T10:19:10.269Z,100404.59
2019-05-18T10:21:40.417Z,100402.97
2019-05-18T10:24:10.550Z,100398.48
2019-05-18T10:26:40.631Z,100402.89
2019-05-18T10:29:10.741Z,100396.34
2019-05-18T10:31:40.854Z,100398.70
2019-05-18T10:34:10.948Z,100384.30
2019-05-18T10:36:41.119Z,100390.20
2019-05-18T10:39:11.213Z,100389.52
2019-05-18T10:41:41.337Z,100382.39
2019-05-18T10:44:11.428Z,100380.24
2019-05-18T10:46:41.505Z,100364.93
2019-05-18T10:49:11.629Z,100375.59
2019-05-18T10:51:41.724Z,100370.56
2019-05-18T10:54:14.716Z,100375.28
2019-05-18T10:56:44.841Z,100363.77
2019-05-18T10:59:14.929Z,100365.69
2019-05-18T11:01:45.071Z,100357.98
2019-05-18T11:04:15.172Z,100368.38
2019-05-18T11:06:45.273Z,100363.47
2019-05-18T11:09:15.373Z,100365.30
2019-05-18T11:11:45.471Z,100355.87
2019-05-18T11:14:18.751Z,100351.61
2019-05-18T11:16:47.447Z,100351.91
2019-05-18T11:19:17.650Z,100355.12
2019-05-18T11:21:47.754Z,100346.56
2019-05-18T11:24:17.848Z,100348.50
2019-05-18T11:26:47.926Z,100345.09
2019-05-18T11:29:23.417Z,100341.91
2019-05-18T11:31:51.861Z,100342.97
2019-05-18T11:34:21.949Z,100358.53
2019-05-18T11:36:52.073Z,100345.22
2019-05-18T11:39:22.236Z,100349.42
2019-05-18T11:41:52.360Z,100345.21
2019-05-18T11:44:22.430Z,100353.24
2019-05-18T11:46:52.537Z,100348.98
2019-05-18T11:49:28.979Z,100346.92
2019-05-18T11:51:57.470Z,100343.44
2019-05-18T11:54:27.628Z,100345.42
2019-05-18T11:56:57.781Z,100345.81
2019-05-18T11:59:27.891Z,100341.09
2019-05-18T12:01:57.970Z,100342.30
2019-05-18T12:04:28.088Z,100336.43
2019-05-18T12:06:58.197Z,100345.95
2019-05-18T12:09:28.308Z,100339.58
2019-05-18T12:11:58.394Z,100334.10
2019-05-18T12:14:28.515Z,100336.27
2019-05-18T12:16:58.594Z,100334.72
2019-05-18T12:19:28.727Z,100339.23
2019-05-18T12:21:58.841Z,100335.59
2019-05-18T12:24:28.954Z,100339.77
2019-05-18T12:26:59.047Z,100328.31
2019-05-18T12:29:29.171Z,100331.30
2019-05-18T12:31:59.270Z,100326.79
2019-05-18T12:34:29.463Z,100322.89
2019-05-18T12:36:59.577Z,100324.20
2019-05-18T12:39:29.693Z,100317.31
2019-05-18T12:41:59.906Z,100323.66
2019-05-18T12:44:30.033Z,100319.70
2019-05-18T12:47:00.150Z,100325.69
2019-05-18T12:49:30.271Z,100326.77
2019-05-18T12:52:00.346Z,100322.55
2019-05-18T12:54:45.373Z,100320.74
2019-05-18T12:57:02.312Z,100327.20
2019-05-18T12:59:32.424Z,100326.83
2019-05-18T13:02:02.533Z,100328.56
2019-05-18T13:04:32.627Z,100318.19
2019-05-18T13:07:02.744Z,100316.19
2019-05-18T13:09:32.851Z,100310.02
2019-05-18T13:12:02.991Z,100312.88
2019-05-18T13:14:33.077Z,100305.27
2019-05-18T13:17:03.156Z,100305.06
2019-05-18T13:19:33.635Z,100296.80
2019-05-18T13:22:03.711Z,100302.84
2019-05-18T13:24:44.922Z,100300.34
2019-05-18T13:27:05.724Z,100302.74
2019-05-18T13:29:35.851Z,100303.36
2019-05-18T13:32:05.991Z,100297.23
2019-05-18T13:34:36.085Z,100285.63
2019-05-18T13:37:06.150Z,100281.95
2019-05-18T13:39:37.108Z,100277.16
2019-05-18T13:42:07.217Z,100280.00
2019-05-18T13:44:38.197Z,100287.89
2019-05-18T13:47:08.483Z,100285.72
2019-05-18T13:49:38.592Z,100280.45
2019-05-18T13:52:08.669Z,100285.14
2019-05-18T13:54:40.208Z,100282.37
2019-05-18T13:57:10.327Z,100284.20
2019-05-18T13:59:40.432Z,100283.01
2019-05-18T14:02:10.534Z,100279.78
2019-05-18T14:04:42.056Z,100281.78
2019-05-18T14:07:12.174Z,100288.73
2019-05-18T14:09:42.280Z,100285.62
2019-05-18T14:12:12.458Z,100283.64
2019-05-18T14:14:42.573Z,100291.91
2019-05-18T14:17:12.664Z,100289.78
2019-05-18T14:19:42.772Z,100286.91
2019-05-18T14:22:12.889Z,100284.89
2019-05-18T14:24:42.976Z,100279.48
2019-05-18T14:27:13.099Z,100275.73
2019-05-18T14:29:43.235Z,100280.40
2019-05-18T14:32:13.351Z,100277.28
2019-05-18T14:34:43.422Z,100271.27
2019-05-18T14:37:13.541Z,100271.36
2019-05-18T14:39:43.633Z,100269.49
2019-05-18T14:42:13.780Z,100267.73
2019-05-18T14:44:43.845Z,100270.84
2019-05-18T14:47:13.988Z,100274.05
2019-05-18T14:49:46.559Z,100273.54
2019-05-18T14:52:16.649Z,100269.03
2019-05-18T14:54:46.743Z,100272.67
2019-05-18T14:57:16.861Z,100268.62
2019-05-18T14:59:46.956Z,100265.16
2019-05-18T15:02:17.095Z,100270.91
2019-05-18T15:04:47.189Z,100265.39
2019-05-18T15:07:17.311Z,100264.76
2019-05-18T15:09:47.387Z,100268.88
2019-05-18T15:12:17.524Z,100264.41
2019-05-18T15:14:47.663Z,100257.13
2019-05-18T15:17:21.102Z,100261.14
2019-05-18T15:19:51.195Z,100252.66
2019-05-18T15:22:21.325Z,100255.22
2019-05-18T15:24:51.492Z,100262.55
2019-05-18T15:27:21.550Z,100257.59
2019-05-18T15:29:51.679Z,100261.80
2019-05-18T15:32:21.787Z,100251.47
2019-05-18T15:34:51.937Z,100249.94
2019-05-18T15:37:22.046Z,100250.77
2019-05-18T15:39:52.551Z,100254.12
2019-05-18T15:42:22.669Z,100253.75
2019-05-18T15:44:52.879Z,100246.63
2019-05-18T15:47:22.961Z,100249.80
2019-05-18T15:49:53.079Z,100248.47
2019-05-18T15:52:23.568Z,100247.76
2019-05-18T15:54:53.664Z,100251.33
2019-05-18T15:57:26.175Z,100250.59
2019-05-18T15:59:55.624Z,100253.98
2019-05-18T16:02:25.722Z,100249.58
2019-05-18T16:04:55.814Z,100248.88
2019-05-18T16:07:25.943Z,100247.70
2019-05-18T16:09:56.034Z,100252.25
2019-05-18T16:12:26.128Z,100250.43
2019-05-18T16:14:56.238Z,100245.08
2019-05-18T16:17:38.306Z,100259.73
2019-05-18T16:19:58.450Z,100250.23
2019-05-18T16:22:28.540Z,100247.13
2019-05-18T16:24:58.719Z,100245.02
2019-05-18T16:27:28.925Z,100249.75
2019-05-18T16:29:59.094Z,100251.98
2019-05-18T16:32:32.229Z,100249.67
2019-05-18T16:35:04.014Z,100249.66
2019-05-18T16:37:34.080Z,100248.34
2019-05-18T16:40:04.304Z,100248.82
2019-05-18T16:42:34.419Z,100244.37
2019-05-18T16:45:04.895Z,100238.26
2019-05-18T16:47:35.013Z,100238.14
2019-05-18T16:50:06.575Z,100243.89
2019-05-18T16:52:36.728Z,100242.56
2019-05-18T16:55:07.522Z,100242.10
2019-05-18T16:57:39.951Z,100248.56
2019-05-18T17:00:15.419Z,100246.86
2019-05-18T17:02:44.506Z,100252.33
2019-05-18T17:05:15.553Z,100245.52
2019-05-18T17:07:45.651Z,100242.23
2019-05-18T17:10:15.982Z,100250.41
2019-05-18T17:12:46.073Z,100258.79
2019-05-18T17:15:16.441Z,100267.17
2019-05-18T17:17:46.495Z,100273.20
2019-05-18T17:20:16.682Z,100270.27
2019-05-18T17:22:46.795Z,100268.16
2019-05-18T17:25:19.580Z,100273.25
2019-05-18T17:27:49.717Z,100276.89
2019-05-18T17:30:21.088Z,100280.76
2019-05-18T17:32:51.217Z,100283.22
2019-05-18T17:35:21.450Z,100281.45
2019-05-18T17:37:51.578Z,100282.07
2019-05-18T17:40:21.775Z,100278.92
2019-05-18T17:42:52.004Z,100278.17
2019-05-18T17:45:22.476Z,100276.98
2019-05-18T17:47:54.083Z,100279.38
2019-05-18T17:50:24.182Z,100283.57
2019-05-18T17:52:54.406Z,100276.55
2019-05-18T17:55:24.517Z,100285.33
2019-05-18T17:57:54.647Z,100284.28
2019-05-18T18:00:24.758Z,100281.52
2019-05-18T18:02:54.857Z,100282.56
2019-05-18T18:05:24.961Z,100280.80
2019-05-18T18:07:55.727Z,100282.13
2019-05-18T18:10:26.052Z,100283.80
2019-05-18T18:12:56.153Z,100283.44
2019-05-18T18:15:26.650Z,100290.56
2019-05-18T18:17:56.794Z,100285.28
2019-05-18T18:20:26.878Z,100284.38
2019-05-18T18:22:56.984Z,100280.55
2019-05-18T18:25:27.061Z,100284.55
2019-05-18T18:28:00.764Z,100283.99
2019-05-18T18:30:30.879Z,100280.23
2019-05-18T18:33:00.970Z,100287.52
2019-05-18T18:35:31.196Z,100286.12
2019-05-18T18:38:01.307Z,100281.84
2019-05-18T18:40:31.405Z,100275.41
2019-05-18T18:43:01.516Z,100281.91
2019-05-18T18:45:33.437Z,100279.08
2019-05-18T18:48:03.601Z,100285.61
2019-05-18T18:50:33.695Z,100283.12
2019-05-18T18:53:03.843Z,100292.51
2019-05-18T18:55:33.925Z,100291.77
2019-05-18T18:58:04.122Z,100291.42
2019-05-18T19:00:34.182Z,100296.40
2019-05-18T19:03:04.303Z,100295.27
2019-05-18T19:05:34.393Z,100291.48
2019-05-18T19:08:04.515Z,100296.06
2019-05-18T19:10:34.588Z,100298.19
2019-05-18T19:13:04.671Z,100300.66
2019-05-18T19:15:34.760Z,100301.95
2019-05-18T19:18:04.876Z,100304.23
2019-05-18T19:20:34.979Z,100312.01
2019-05-18T19:23:05.123Z,100310.83
2019-05-18T19:25:35.164Z,100315.55
2019-05-18T19:28:05.259Z,100315.63
2019-05-18T19:30:35.367Z,100317.39
2019-05-18T19:33:05.483Z,100318.87
2019-05-18T19:35:35.571Z,100324.91
2019-05-18T19:38:05.690Z,100321.28
2019-05-18T19:40:35.811Z,100321.77
2019-05-18T19:43:05.895Z,100324.00
2019-05-18T19:45:36.023Z,100326.59
2019-05-18T19:48:06.115Z,100328.57
2019-05-18T19:50:36.254Z,100327.50
2019-05-18T19:53:06.403Z,100330.11
2019-05-18T19:55:36.502Z,100331.79
2019-05-18T19:58:09.074Z,100333.77
2019-05-18T20:00:38.487Z,100326.92
2019-05-18T20:03:08.605Z,100334.55
2019-05-18T20:05:38.662Z,100331.44
2019-05-18T20:08:08.762Z,100336.84
2019-05-18T20:10:38.854Z,100332.41
2019-05-18T20:13:08.986Z,100334.67
2019-05-18T20:15:39.179Z,100339.67
2019-05-18T20:18:09.390Z,100333.95
2019-05-18T20:20:39.548Z,100333.79
2019-05-18T20:23:09.697Z,100331.99
2019-05-18T20:25:39.808Z,100330.22
2019-05-18T20:28:22.862Z,100330.98
2019-05-18T20:30:43.835Z,100331.22
2019-05-18T20:33:13.994Z,100329.64
2019-05-18T20:35:46.135Z,100332.44
2019-05-18T20:38:15.952Z,100334.08
2019-05-18T20:40:46.054Z,100336.95
2019-05-18T20:43:16.158Z,100329.48
2019-05-18T20:45:46.282Z,100333.63
2019-05-18T20:48:17.065Z,100336.11
2019-05-18T20:50:47.289Z,100329.78
2019-05-18T20:53:17.390Z,100331.23
2019-05-18T20:55:47.572Z,100329.52
2019-05-18T20:58:19.397Z,100329.31
2019-05-18T21:00:49.529Z,100326.80
2019-05-18T21:03:19.622Z,100325.77
2019-05-18T21:05:49.889Z,100335.58
2019-05-18T21:08:20.014Z,100340.23
2019-05-18T21:10:50.223Z,100346.98
2019-05-18T21:13:20.350Z,100345.74
2019-05-18T21:15:50.470Z,100341.58
2019-05-18T21:18:20.544Z,100343.11
2019-05-18T21:20:50.661Z,100340.13
2019-05-18T21:23:20.777Z,100339.73
2019-05-18T21:25:50.876Z,100339.30
2019-05-18T21:28:20.954Z,100332.47
2019-05-18T21:30:51.069Z,100335.77
2019-05-18T21:33:21.173Z,100347.97
2019-05-18T21:35:51.294Z,100349.70
2019-05-18T21:38:21.420Z,100337.12
2019-05-18T21:40:51.764Z,100341.10
2019-05-18T21:43:21.965Z,100346.13
2019-05-18T21:45:52.074Z,100338.58
2019-05-18T21:48:22.233Z,100340.30
2019-05-18T21:50:52.413Z,100340.97
2019-05-18T21:53:22.517Z,100349.43
2019-05-18T21:55:52.614Z,100345.98
2019-05-18T21:58:22.949Z,100340.80
2019-05-18T22:00:53.603Z,100337.50
2019-05-18T22:03:23.700Z,100338.02
2019-05-18T22:05:53.973Z,100338.50
2019-05-18T22:08:24.123Z,100338.58
2019-05-18T22:10:54.392Z,100335.95
2019-05-18T22:13:24.502Z,100333.49
2019-05-18T22:15:54.604Z,100331.94
2019-05-18T22:18:25.111Z,100338.27
2019-05-18T22:20:55.377Z,100331.84
2019-05-18T22:23:25.474Z,100323.17
2019-05-18T22:25:57.153Z,100325.56
2019-05-18T22:28:27.467Z,100326.85
2019-05-18T22:30:57.564Z,100325.13
2019-05-18T22:33:27.878Z,100322.59
2019-05-18T22:35:58.020Z,100325.23
2019-05-18T22:38:28.131Z,100330.35
2019-05-18T22:40:58.226Z,100324.80
2019-05-18T22:43:28.316Z,100323.99
2019-05-18T22:45:58.408Z,100329.14
2019-05-18T22:48:40.934Z,100324.51
2019-05-18T22:51:00.325Z,100329.53
2019-05-18T22:53:30.422Z,100325.72
2019-05-18T22:56:02.272Z,100323.11
2019-05-18T22:58:32.372Z,100323.70
2019-05-18T23:01:02.456Z,100324.25
2019-05-18T23:03:32.551Z,100322.63
2019-05-18T23:06:02.680Z,100319.32
2019-05-18T23:08:32.764Z,100317.70
2019-05-18T23:11:02.834Z,100318.20
2019-05-18T23:13:33.007Z,100323.34
2019-05-18T23:16:03.102Z,100320.44
2019-05-18T23:18:33.213Z,100323.19
2019-05-18T23:21:03.595Z,100316.06
2019-05-18T23:23:33.730Z,100318.53
2019-05-18T23:26:03.809Z,100317.03
2019-05-18T23:28:33.993Z,100314.25
2019-05-18T23:31:04.057Z,100312.01
2019-05-18T23:33:34.159Z,100309.84
2019-05-18T23:36:04.250Z,100301.94
2019-05-18T23:38:34.356Z,100306.88
2019-05-18T23:41:04.419Z,100306.27
2019-05-18T23:43:34.498Z,100310.42
2019-05-18T23:46:04.582Z,100303.45
2019-05-18T23:48:34.695Z,100303.45
2019-05-18T23:51:04.760Z,100304.04
2019-05-18T23:53:34.844Z,100299.81
2019-05-18T23:56:04.974Z,100302.53
2019-05-18T23:58:35.083Z,100300.08
